sensor_id;sensor_type;location;lat;lon;timestamp;P1;durP1;ratioP1;P2;durP2;ratioP2
20535;SDS011;10426;49.420;8.390;2023-04-03T00:00:59;1.70;;;1.60;;
20535;SDS011;10426;49.420;8.390;2023-04-03T00:03:26;1.40;;;1.30;;
20535;SDS011;10426;49.420;8.390;2023-04-03T00:05:52;2.87;;;1.70;;
20535;SDS011;10426;49.420;8.390;2023-04-03T00:08:19;2.13;;;1.60;;
20535;SDS011;10426;49.420;8.390;2023-04-03T00:10:46;2.60;;;1.92;;
20535;SDS011;10426;49.420;8.390;2023-04-03T00:13:13;1.90;;;1.80;;
20535;SDS011;10426;49.420;8.390;2023-04-03T00:15:41;3.00;;;2.03;;
20535;SDS011;10426;49.420;8.390;2023-04-03T00:18:08;2.47;;;1.70;;
20535;SDS011;10426;49.420;8.390;2023-04-03T00:20:34;2.07;;;1.80;;
20535;SDS011;10426;49.420;8.390;2023-04-03T00:23:02;2.53;;;1.80;;
20535;SDS011;10426;49.420;8.390;2023-04-03T00:25:28;2.00;;;1.80;;
20535;SDS011;10426;49.420;8.390;2023-04-03T00:27:55;1.90;;;1.80;;
20535;SDS011;10426;49.420;8.390;2023-04-03T00:30:22;1.87;;;1.77;;
20535;SDS011;10426;49.420;8.390;2023-04-03T00:32:50;2.15;;;1.95;;
20535;SDS011;10426;49.420;8.390;2023-04-03T00:35:18;1.90;;;1.80;;
20535;SDS011;10426;49.420;8.390;2023-04-03T00:37:45;2.00;;;1.90;;
20535;SDS011;10426;49.420;8.390;2023-04-03T00:40:13;2.85;;;1.70;;
20535;SDS011;10426;49.420;8.390;2023-04-03T00:42:40;2.22;;;2.00;;
20535;SDS011;10426;49.420;8.390;2023-04-03T00:45:24;2.63;;;1.75;;
20535;SDS011;10426;49.420;8.390;2023-04-03T00:47:52;2.17;;;1.77;;
20535;SDS011;10426;49.420;8.390;2023-04-03T00:50:19;2.25;;;2.00;;
20535;SDS011;10426;49.420;8.390;2023-04-03T00:52:46;1.90;;;1.80;;
20535;SDS011;10426;49.420;8.390;2023-04-03T00:55:14;2.20;;;1.85;;
20535;SDS011;10426;49.420;8.390;2023-04-03T00:57:41;2.00;;;1.90;;
20535;SDS011;10426;49.420;8.390;2023-04-03T01:00:09;2.20;;;1.83;;
20535;SDS011;10426;49.420;8.390;2023-04-03T01:02:37;2.10;;;1.90;;
20535;SDS011;10426;49.420;8.390;2023-04-03T01:05:07;2.60;;;2.05;;
20535;SDS011;10426;49.420;8.390;2023-04-03T01:07:34;3.28;;;1.85;;
20535;SDS011;10426;49.420;8.390;2023-04-03T01:10:03;2.05;;;1.90;;
20535;SDS011;10426;49.420;8.390;2023-04-03T01:12:32;1.80;;;1.70;;
20535;SDS011;10426;49.420;8.390;2023-04-03T01:14:59;1.80;;;1.70;;
20535;SDS011;10426;49.420;8.390;2023-04-03T01:17:28;1.88;;;1.70;;
20535;SDS011;10426;49.420;8.390;2023-04-03T01:19:57;2.00;;;1.90;;
20535;SDS011;10426;49.420;8.390;2023-04-03T01:22:27;1.90;;;1.80;;
20535;SDS011;10426;49.420;8.390;2023-04-03T01:24:56;2.63;;;1.92;;
20535;SDS011;10426;49.420;8.390;2023-04-03T01:27:23;1.95;;;1.83;;
20535;SDS011;10426;49.420;8.390;2023-04-03T01:29:50;3.45;;;2.20;;
20535;SDS011;10426;49.420;8.390;2023-04-03T01:32:18;1.80;;;1.70;;
20535;SDS011;10426;49.420;8.390;2023-04-03T01:34:44;3.50;;;1.90;;
20535;SDS011;10426;49.420;8.390;2023-04-03T01:37:11;2.30;;;1.90;;
20535;SDS011;10426;49.420;8.390;2023-04-03T01:39:37;1.80;;;1.70;;
20535;SDS011;10426;49.420;8.390;2023-04-03T01:42:04;2.20;;;1.87;;
20535;SDS011;10426;49.420;8.390;2023-04-03T01:44:31;2.00;;;1.80;;
20535;SDS011;10426;49.420;8.390;2023-04-03T01:46:57;2.13;;;1.80;;
20535;SDS011;10426;49.420;8.390;2023-04-03T01:49:25;2.17;;;1.88;;
20535;SDS011;10426;49.420;8.390;2023-04-03T01:51:52;2.00;;;1.80;;
20535;SDS011;10426;49.420;8.390;2023-04-03T01:54:19;3.37;;;1.90;;
20535;SDS011;10426;49.420;8.390;2023-04-03T01:56:45;2.00;;;1.80;;
20535;SDS011;10426;49.420;8.390;2023-04-03T01:59:12;1.98;;;1.80;;
20535;SDS011;10426;49.420;8.390;2023-04-03T02:01:40;2.10;;;1.80;;
20535;SDS011;10426;49.420;8.390;2023-04-03T02:04:07;1.90;;;1.80;;
20535;SDS011;10426;49.420;8.390;2023-04-03T02:06:35;1.95;;;1.67;;
20535;SDS011;10426;49.420;8.390;2023-04-03T02:09:02;1.88;;;1.70;;
20535;SDS011;10426;49.420;8.390;2023-04-03T02:11:28;1.80;;;1.70;;
20535;SDS011;10426;49.420;8.390;2023-04-03T02:13:55;1.77;;;1.67;;
20535;SDS011;10426;49.420;8.390;2023-04-03T02:16:22;2.88;;;1.95;;
20535;SDS011;10426;49.420;8.390;2023-04-03T02:18:48;2.50;;;1.90;;
20535;SDS011;10426;49.420;8.390;2023-04-03T02:21:15;1.90;;;1.80;;
20535;SDS011;10426;49.420;8.390;2023-04-03T02:23:43;3.10;;;1.70;;
20535;SDS011;10426;49.420;8.390;2023-04-03T02:26:11;1.90;;;1.80;;
20535;SDS011;10426;49.420;8.390;2023-04-03T02:28:38;2.30;;;2.00;;
20535;SDS011;10426;49.420;8.390;2023-04-03T02:31:06;1.93;;;1.80;;
20535;SDS011;10426;49.420;8.390;2023-04-03T02:33:33;2.10;;;2.00;;
20535;SDS011;10426;49.420;8.390;2023-04-03T02:36:01;2.47;;;2.28;;
20535;SDS011;10426;49.420;8.390;2023-04-03T02:38:27;2.67;;;2.13;;
20535;SDS011;10426;49.420;8.390;2023-04-03T02:41:00;2.45;;;2.25;;
20535;SDS011;10426;49.420;8.390;2023-04-03T02:43:27;2.10;;;2.00;;
20535;SDS011;10426;49.420;8.390;2023-04-03T02:45:53;2.20;;;2.10;;
20535;SDS011;10426;49.420;8.390;2023-04-03T02:48:20;2.83;;;2.58;;
20535;SDS011;10426;49.420;8.390;2023-04-03T02:50:47;2.60;;;2.25;;
20535;SDS011;10426;49.420;8.390;2023-04-03T02:53:13;2.97;;;2.13;;
20535;SDS011;10426;49.420;8.390;2023-04-03T02:55:40;3.22;;;2.20;;
20535;SDS011;10426;49.420;8.390;2023-04-03T02:58:08;2.58;;;2.35;;
20535;SDS011;10426;49.420;8.390;2023-04-03T03:00:35;2.20;;;2.10;;
20535;SDS011;10426;49.420;8.390;2023-04-03T03:03:02;2.50;;;2.30;;
20535;SDS011;10426;49.420;8.390;2023-04-03T03:05:28;2.58;;;2.38;;
20535;SDS011;10426;49.420;8.390;2023-04-03T03:07:55;2.50;;;2.30;;
20535;SDS011;10426;49.420;8.390;2023-04-03T03:10:24;3.47;;;2.40;;
20535;SDS011;10426;49.420;8.390;2023-04-03T03:12:50;2.27;;;2.17;;
20535;SDS011;10426;49.420;8.390;2023-04-03T03:15:18;3.53;;;2.20;;
20535;SDS011;10426;49.420;8.390;2023-04-03T03:17:45;2.50;;;2.30;;
20535;SDS011;10426;49.420;8.390;2023-04-03T03:20:12;2.80;;;2.50;;
20535;SDS011;10426;49.420;8.390;2023-04-03T03:22:39;3.80;;;2.45;;
20535;SDS011;10426;49.420;8.390;2023-04-03T03:25:06;2.95;;;2.70;;
20535;SDS011;10426;49.420;8.390;2023-04-03T03:27:33;3.55;;;2.47;;
20535;SDS011;10426;49.420;8.390;2023-04-03T03:30:00;2.70;;;2.50;;
20535;SDS011;10426;49.420;8.390;2023-04-03T03:34:55;2.60;;;2.40;;
20535;SDS011;10426;49.420;8.390;2023-04-03T03:37:23;2.95;;;2.50;;
20535;SDS011;10426;49.420;8.390;2023-04-03T03:39:49;3.40;;;2.30;;
20535;SDS011;10426;49.420;8.390;2023-04-03T03:42:16;2.65;;;2.45;;
20535;SDS011;10426;49.420;8.390;2023-04-03T03:44:43;2.70;;;2.45;;
20535;SDS011;10426;49.420;8.390;2023-04-03T03:47:09;3.63;;;2.30;;
20535;SDS011;10426;49.420;8.390;2023-04-03T03:49:36;2.33;;;2.22;;
20535;SDS011;10426;49.420;8.390;2023-04-03T03:52:04;2.45;;;2.25;;
20535;SDS011;10426;49.420;8.390;2023-04-03T03:54:31;2.10;;;2.00;;
20535;SDS011;10426;49.420;8.390;2023-04-03T03:56:57;2.40;;;2.20;;
20535;SDS011;10426;49.420;8.390;2023-04-03T03:59:24;2.53;;;2.05;;
20535;SDS011;10426;49.420;8.390;2023-04-03T04:01:51;2.73;;;2.10;;
20535;SDS011;10426;49.420;8.390;2023-04-03T04:04:18;2.05;;;1.95;;
20535;SDS011;10426;49.420;8.390;2023-04-03T04:06:45;2.10;;;2.00;;
20535;SDS011;10426;49.420;8.390;2023-04-03T04:09:12;2.10;;;2.00;;
20535;SDS011;10426;49.420;8.390;2023-04-03T04:11:39;2.30;;;2.17;;
20535;SDS011;10426;49.420;8.390;2023-04-03T04:14:06;2.63;;;2.03;;
20535;SDS011;10426;49.420;8.390;2023-04-03T04:16:33;2.55;;;2.30;;
20535;SDS011;10426;49.420;8.390;2023-04-03T04:18:59;2.15;;;2.05;;
20535;SDS011;10426;49.420;8.390;2023-04-03T04:21:26;2.40;;;2.20;;
20535;SDS011;10426;49.420;8.390;2023-04-03T04:23:52;2.33;;;2.10;;
20535;SDS011;10426;49.420;8.390;2023-04-03T04:26:21;2.40;;;2.20;;
20535;SDS011;10426;49.420;8.390;2023-04-03T04:28:47;2.10;;;1.90;;
20535;SDS011;10426;49.420;8.390;2023-04-03T04:31:14;2.20;;;2.00;;
20535;SDS011;10426;49.420;8.390;2023-04-03T04:33:40;2.53;;;2.30;;
20535;SDS011;10426;49.420;8.390;2023-04-03T04:36:07;2.50;;;2.30;;
20535;SDS011;10426;49.420;8.390;2023-04-03T04:38:34;2.70;;;2.10;;
20535;SDS011;10426;49.420;8.390;2023-04-03T04:41:00;2.35;;;2.15;;
20535;SDS011;10426;49.420;8.390;2023-04-03T04:43:28;2.45;;;2.20;;
20535;SDS011;10426;49.420;8.390;2023-04-03T04:46:01;2.83;;;2.60;;
20535;SDS011;10426;49.420;8.390;2023-04-03T04:48:28;2.58;;;2.28;;
20535;SDS011;10426;49.420;8.390;2023-04-03T04:50:55;2.60;;;2.30;;
20535;SDS011;10426;49.420;8.390;2023-04-03T04:53:22;2.50;;;2.30;;
20535;SDS011;10426;49.420;8.390;2023-04-03T04:55:48;3.43;;;2.50;;
20535;SDS011;10426;49.420;8.390;2023-04-03T04:58:15;2.60;;;2.40;;
20535;SDS011;10426;49.420;8.390;2023-04-03T05:00:43;2.90;;;2.60;;
20535;SDS011;10426;49.420;8.390;2023-04-03T05:03:10;2.67;;;2.47;;
20535;SDS011;10426;49.420;8.390;2023-04-03T05:05:36;2.78;;;2.55;;
20535;SDS011;10426;49.420;8.390;2023-04-03T05:08:03;3.20;;;2.47;;
20535;SDS011;10426;49.420;8.390;2023-04-03T05:10:30;2.90;;;2.70;;
20535;SDS011;10426;49.420;8.390;2023-04-03T05:12:57;2.83;;;2.63;;
20535;SDS011;10426;49.420;8.390;2023-04-03T05:15:23;3.20;;;2.90;;
20535;SDS011;10426;49.420;8.390;2023-04-03T05:17:51;2.92;;;2.70;;
20535;SDS011;10426;49.420;8.390;2023-04-03T05:20:18;3.15;;;2.90;;
20535;SDS011;10426;49.420;8.390;2023-04-03T05:22:44;2.90;;;2.70;;
20535;SDS011;10426;49.420;8.390;2023-04-03T05:25:11;2.95;;;2.67;;
20535;SDS011;10426;49.420;8.390;2023-04-03T05:27:38;2.60;;;2.40;;
20535;SDS011;10426;49.420;8.390;2023-04-03T05:30:05;2.80;;;2.60;;
20535;SDS011;10426;49.420;8.390;2023-04-03T05:32:32;3.30;;;2.70;;
20535;SDS011;10426;49.420;8.390;2023-04-03T05:35:00;3.20;;;2.77;;
20535;SDS011;10426;49.420;8.390;2023-04-03T05:37:27;3.00;;;2.60;;
20535;SDS011;10426;49.420;8.390;2023-04-03T05:39:53;3.72;;;2.80;;
20535;SDS011;10426;49.420;8.390;2023-04-03T05:42:20;5.03;;;3.00;;
20535;SDS011;10426;49.420;8.390;2023-04-03T05:44:46;3.50;;;2.83;;
20535;SDS011;10426;49.420;8.390;2023-04-03T05:47:14;5.05;;;3.10;;
20535;SDS011;10426;49.420;8.390;2023-04-03T05:49:40;3.47;;;2.97;;
20535;SDS011;10426;49.420;8.390;2023-04-03T05:52:11;3.63;;;3.33;;
20535;SDS011;10426;49.420;8.390;2023-04-03T05:54:42;3.80;;;3.22;;
20535;SDS011;10426;49.420;8.390;2023-04-03T05:57:09;4.68;;;3.08;;
20535;SDS011;10426;49.420;8.390;2023-04-03T05:59:37;6.00;;;3.60;;
20535;SDS011;10426;49.420;8.390;2023-04-03T06:02:03;5.23;;;3.37;;
20535;SDS011;10426;49.420;8.390;2023-04-03T06:04:30;3.55;;;3.05;;
20535;SDS011;10426;49.420;8.390;2023-04-03T06:06:57;3.92;;;2.95;;
20535;SDS011;10426;49.420;8.390;2023-04-03T06:09:26;3.90;;;3.05;;
20535;SDS011;10426;49.420;8.390;2023-04-03T06:11:54;3.13;;;2.83;;
20535;SDS011;10426;49.420;8.390;2023-04-03T06:14:21;3.50;;;3.03;;
20535;SDS011;10426;49.420;8.390;2023-04-03T06:16:47;4.35;;;3.05;;
20535;SDS011;10426;49.420;8.390;2023-04-03T06:19:14;3.10;;;2.80;;
20535;SDS011;10426;49.420;8.390;2023-04-03T06:21:41;3.30;;;3.00;;
20535;SDS011;10426;49.420;8.390;2023-04-03T06:24:09;5.20;;;3.30;;
20535;SDS011;10426;49.420;8.390;2023-04-03T06:26:37;4.50;;;2.78;;
20535;SDS011;10426;49.420;8.390;2023-04-03T06:29:03;3.58;;;2.75;;
20535;SDS011;10426;49.420;8.390;2023-04-03T06:31:30;3.65;;;2.47;;
20535;SDS011;10426;49.420;8.390;2023-04-03T06:33:57;2.97;;;2.67;;
20535;SDS011;10426;49.420;8.390;2023-04-03T06:36:23;3.60;;;2.83;;
20535;SDS011;10426;49.420;8.390;2023-04-03T06:38:50;2.92;;;2.60;;
20535;SDS011;10426;49.420;8.390;2023-04-03T06:41:17;3.17;;;2.63;;
20535;SDS011;10426;49.420;8.390;2023-04-03T06:43:45;3.28;;;2.63;;
20535;SDS011;10426;49.420;8.390;2023-04-03T06:46:13;3.38;;;2.70;;
20535;SDS011;10426;49.420;8.390;2023-04-03T06:48:40;5.80;;;2.78;;
20535;SDS011;10426;49.420;8.390;2023-04-03T06:51:17;4.20;;;2.33;;
20535;SDS011;10426;49.420;8.390;2023-04-03T06:53:45;3.58;;;2.28;;
20535;SDS011;10426;49.420;8.390;2023-04-03T06:56:12;3.65;;;2.30;;
20535;SDS011;10426;49.420;8.390;2023-04-03T06:58:39;2.35;;;2.15;;
20535;SDS011;10426;49.420;8.390;2023-04-03T07:01:07;2.80;;;2.17;;
20535;SDS011;10426;49.420;8.390;2023-04-03T07:03:35;3.57;;;2.47;;
20535;SDS011;10426;49.420;8.390;2023-04-03T07:06:02;3.03;;;2.10;;
20535;SDS011;10426;49.420;8.390;2023-04-03T07:08:28;2.47;;;2.28;;
20535;SDS011;10426;49.420;8.390;2023-04-03T07:10:55;2.50;;;2.30;;
20535;SDS011;10426;49.420;8.390;2023-04-03T07:13:22;3.55;;;2.40;;
20535;SDS011;10426;49.420;8.390;2023-04-03T07:15:48;3.17;;;2.55;;
20535;SDS011;10426;49.420;8.390;2023-04-03T07:18:16;2.30;;;2.10;;
20535;SDS011;10426;49.420;8.390;2023-04-03T07:20:43;4.68;;;2.45;;
20535;SDS011;10426;49.420;8.390;2023-04-03T07:23:10;3.08;;;2.20;;
20535;SDS011;10426;49.420;8.390;2023-04-03T07:25:41;4.22;;;3.15;;
20535;SDS011;10426;49.420;8.390;2023-04-03T07:28:08;6.93;;;3.10;;
20535;SDS011;10426;49.420;8.390;2023-04-03T07:30:34;11.60;;;5.40;;
20535;SDS011;10426;49.420;8.390;2023-04-03T07:33:01;4.73;;;2.50;;
20535;SDS011;10426;49.420;8.390;2023-04-03T07:35:29;2.90;;;1.90;;
20535;SDS011;10426;49.420;8.390;2023-04-03T07:37:56;2.33;;;1.90;;
20535;SDS011;10426;49.420;8.390;2023-04-03T07:40:22;3.55;;;2.08;;
20535;SDS011;10426;49.420;8.390;2023-04-03T07:42:49;3.92;;;2.30;;
20535;SDS011;10426;49.420;8.390;2023-04-03T07:45:16;2.97;;;2.25;;
20535;SDS011;10426;49.420;8.390;2023-04-03T07:47:42;3.60;;;2.40;;
20535;SDS011;10426;49.420;8.390;2023-04-03T07:50:09;2.45;;;2.00;;
20535;SDS011;10426;49.420;8.390;2023-04-03T07:52:37;2.80;;;2.13;;
20535;SDS011;10426;49.420;8.390;2023-04-03T07:55:04;3.80;;;2.17;;
20535;SDS011;10426;49.420;8.390;2023-04-03T07:57:31;3.67;;;2.10;;
20535;SDS011;10426;49.420;8.390;2023-04-03T07:59:58;3.13;;;1.90;;
20535;SDS011;10426;49.420;8.390;2023-04-03T08:02:24;5.50;;;2.23;;
20535;SDS011;10426;49.420;8.390;2023-04-03T08:04:52;3.67;;;1.95;;
20535;SDS011;10426;49.420;8.390;2023-04-03T08:07:18;3.60;;;2.20;;
20535;SDS011;10426;49.420;8.390;2023-04-03T08:09:47;2.78;;;1.80;;
20535;SDS011;10426;49.420;8.390;2023-04-03T08:12:14;2.40;;;1.80;;
20535;SDS011;10426;49.420;8.390;2023-04-03T08:14:41;3.03;;;2.00;;
20535;SDS011;10426;49.420;8.390;2023-04-03T08:17:07;3.05;;;2.00;;
20535;SDS011;10426;49.420;8.390;2023-04-03T08:19:37;2.55;;;1.75;;
20535;SDS011;10426;49.420;8.390;2023-04-03T08:22:03;2.15;;;1.75;;
20535;SDS011;10426;49.420;8.390;2023-04-03T08:24:30;2.05;;;1.77;;
20535;SDS011;10426;49.420;8.390;2023-04-03T08:26:58;2.45;;;1.98;;
20535;SDS011;10426;49.420;8.390;2023-04-03T08:29:25;3.83;;;2.10;;
20535;SDS011;10426;49.420;8.390;2023-04-03T08:31:52;2.65;;;1.90;;
20535;SDS011;10426;49.420;8.390;2023-04-03T08:34:19;3.88;;;1.90;;
20535;SDS011;10426;49.420;8.390;2023-04-03T08:36:46;2.22;;;1.60;;
20535;SDS011;10426;49.420;8.390;2023-04-03T08:39:13;1.70;;;1.58;;
20535;SDS011;10426;49.420;8.390;2023-04-03T08:41:40;2.75;;;1.80;;
20535;SDS011;10426;49.420;8.390;2023-04-03T08:44:13;2.33;;;1.40;;
20535;SDS011;10426;49.420;8.390;2023-04-03T08:46:52;2.80;;;1.90;;
20535;SDS011;10426;49.420;8.390;2023-04-03T08:49:22;2.45;;;1.60;;
20535;SDS011;10426;49.420;8.390;2023-04-03T08:51:52;1.40;;;1.30;;
20535;SDS011;10426;49.420;8.390;2023-04-03T08:54:22;1.97;;;1.40;;
20535;SDS011;10426;49.420;8.390;2023-04-03T08:56:50;1.70;;;1.58;;
20535;SDS011;10426;49.420;8.390;2023-04-03T08:59:19;1.77;;;1.58;;
20535;SDS011;10426;49.420;8.390;2023-04-03T09:01:50;1.50;;;1.40;;
20535;SDS011;10426;49.420;8.390;2023-04-03T09:04:17;2.10;;;1.60;;
20535;SDS011;10426;49.420;8.390;2023-04-03T09:06:44;2.00;;;1.30;;
20535;SDS011;10426;49.420;8.390;2023-04-03T09:09:15;1.75;;;1.35;;
20535;SDS011;10426;49.420;8.390;2023-04-03T09:11:44;2.47;;;1.67;;
20535;SDS011;10426;49.420;8.390;2023-04-03T09:14:14;2.38;;;1.50;;
20535;SDS011;10426;49.420;8.390;2023-04-03T09:16:46;1.50;;;1.40;;
20535;SDS011;10426;49.420;8.390;2023-04-03T09:19:15;2.53;;;1.33;;
20535;SDS011;10426;49.420;8.390;2023-04-03T09:21:45;2.20;;;1.30;;
20535;SDS011;10426;49.420;8.390;2023-04-03T09:24:12;1.70;;;1.40;;
20535;SDS011;10426;49.420;8.390;2023-04-03T09:26:41;2.10;;;1.65;;
20535;SDS011;10426;49.420;8.390;2023-04-03T09:29:08;1.95;;;1.40;;
20535;SDS011;10426;49.420;8.390;2023-04-03T09:31:40;2.70;;;1.48;;
20535;SDS011;10426;49.420;8.390;2023-04-03T09:34:13;2.47;;;1.70;;
20535;SDS011;10426;49.420;8.390;2023-04-03T09:36:43;1.38;;;1.27;;
20535;SDS011;10426;49.420;8.390;2023-04-03T09:39:12;1.45;;;1.17;;
20535;SDS011;10426;49.420;8.390;2023-04-03T09:41:38;1.40;;;1.30;;
20535;SDS011;10426;49.420;8.390;2023-04-03T09:44:17;2.47;;;1.55;;
20535;SDS011;10426;49.420;8.390;2023-04-03T09:46:46;2.50;;;1.80;;
20535;SDS011;10426;49.420;8.390;2023-04-03T09:49:14;1.40;;;1.20;;
20535;SDS011;10426;49.420;8.390;2023-04-03T09:51:41;1.90;;;1.10;;
20535;SDS011;10426;49.420;8.390;2023-04-03T09:56:54;1.40;;;1.30;;
20535;SDS011;10426;49.420;8.390;2023-04-03T09:59:21;1.38;;;1.25;;
20535;SDS011;10426;49.420;8.390;2023-04-03T10:01:56;2.00;;;1.50;;
20535;SDS011;10426;49.420;8.390;2023-04-03T10:04:25;1.42;;;1.30;;
20535;SDS011;10426;49.420;8.390;2023-04-03T10:06:52;1.63;;;1.27;;
20535;SDS011;10426;49.420;8.390;2023-04-03T10:09:20;1.60;;;1.50;;
20535;SDS011;10426;49.420;8.390;2023-04-03T10:11:58;1.75;;;1.23;;
20535;SDS011;10426;49.420;8.390;2023-04-03T10:14:24;1.10;;;1.10;;
20535;SDS011;10426;49.420;8.390;2023-04-03T10:16:52;1.90;;;1.20;;
20535;SDS011;10426;49.420;8.390;2023-04-03T10:19:29;1.58;;;1.23;;
20535;SDS011;10426;49.420;8.390;2023-04-03T10:21:59;2.05;;;1.23;;
20535;SDS011;10426;49.420;8.390;2023-04-03T10:24:28;1.20;;;1.10;;
20535;SDS011;10426;49.420;8.390;2023-04-03T10:26:57;1.40;;;1.10;;
20535;SDS011;10426;49.420;8.390;2023-04-03T10:29:31;4.38;;;1.45;;
20535;SDS011;10426;49.420;8.390;2023-04-03T10:32:02;1.67;;;1.10;;
20535;SDS011;10426;49.420;8.390;2023-04-03T10:34:33;1.47;;;1.30;;
20535;SDS011;10426;49.420;8.390;2023-04-03T10:37:05;2.33;;;1.30;;
20535;SDS011;10426;49.420;8.390;2023-04-03T10:39:34;2.40;;;2.20;;
20535;SDS011;10426;49.420;8.390;2023-04-03T10:42:04;1.67;;;1.15;;
20535;SDS011;10426;49.420;8.390;2023-04-03T10:44:36;2.53;;;1.70;;
20535;SDS011;10426;49.420;8.390;2023-04-03T10:47:05;1.67;;;1.38;;
20535;SDS011;10426;49.420;8.390;2023-04-03T10:49:41;2.27;;;1.17;;
20535;SDS011;10426;49.420;8.390;2023-04-03T10:52:14;6.35;;;1.30;;
20535;SDS011;10426;49.420;8.390;2023-04-03T10:54:44;1.65;;;1.17;;
20535;SDS011;10426;49.420;8.390;2023-04-03T10:57:12;1.38;;;1.27;;
20535;SDS011;10426;49.420;8.390;2023-04-03T10:59:40;1.80;;;1.30;;
20535;SDS011;10426;49.420;8.390;2023-04-03T11:02:11;1.20;;;1.10;;
20535;SDS011;10426;49.420;8.390;2023-04-03T11:04:42;2.72;;;1.33;;
20535;SDS011;10426;49.420;8.390;2023-04-03T11:07:11;1.45;;;1.33;;
20535;SDS011;10426;49.420;8.390;2023-04-03T11:09:41;1.25;;;1.15;;
20535;SDS011;10426;49.420;8.390;2023-04-03T11:12:10;2.38;;;1.25;;
20535;SDS011;10426;49.420;8.390;2023-04-03T11:14:38;1.65;;;1.17;;
20535;SDS011;10426;49.420;8.390;2023-04-03T11:17:08;1.33;;;1.23;;
20535;SDS011;10426;49.420;8.390;2023-04-03T11:19:38;1.48;;;1.15;;
20535;SDS011;10426;49.420;8.390;2023-04-03T11:22:10;1.60;;;1.50;;
20535;SDS011;10426;49.420;8.390;2023-04-03T11:24:41;1.23;;;1.10;;
20535;SDS011;10426;49.420;8.390;2023-04-03T11:27:10;1.40;;;1.30;;
20535;SDS011;10426;49.420;8.390;2023-04-03T11:29:39;1.35;;;1.13;;
20535;SDS011;10426;49.420;8.390;2023-04-03T11:32:13;1.13;;;1.10;;
20535;SDS011;10426;49.420;8.390;2023-04-03T11:34:44;1.92;;;1.38;;
20535;SDS011;10426;49.420;8.390;2023-04-03T11:37:15;2.38;;;1.70;;
20535;SDS011;10426;49.420;8.390;2023-04-03T11:39:47;1.70;;;1.60;;
20535;SDS011;10426;49.420;8.390;2023-04-03T11:42:17;1.40;;;1.30;;
20535;SDS011;10426;49.420;8.390;2023-04-03T11:44:49;1.77;;;1.40;;
20535;SDS011;10426;49.420;8.390;2023-04-03T11:49:59;3.80;;;3.50;;
20535;SDS011;10426;49.420;8.390;2023-04-03T11:58:11;7.35;;;6.82;;
20535;SDS011;10426;49.420;8.390;2023-04-03T12:00:48;2.30;;;2.10;;
20535;SDS011;10426;49.420;8.390;2023-04-03T12:08:58;1.42;;;1.33;;
20535;SDS011;10426;49.420;8.390;2023-04-03T12:11:25;1.30;;;1.20;;
20535;SDS011;10426;49.420;8.390;2023-04-03T12:14:03;2.20;;;1.30;;
20535;SDS011;10426;49.420;8.390;2023-04-03T12:16:30;1.85;;;1.60;;
20535;SDS011;10426;49.420;8.390;2023-04-03T12:19:00;1.60;;;1.33;;
20535;SDS011;10426;49.420;8.390;2023-04-03T12:24:24;1.50;;;1.40;;
20535;SDS011;10426;49.420;8.390;2023-04-03T12:26:51;2.47;;;1.90;;
20535;SDS011;10426;49.420;8.390;2023-04-03T12:29:33;2.25;;;1.38;;
20535;SDS011;10426;49.420;8.390;2023-04-03T12:32:05;1.40;;;1.30;;
20535;SDS011;10426;49.420;8.390;2023-04-03T12:37:24;1.40;;;1.30;;
20535;SDS011;10426;49.420;8.390;2023-04-03T12:39:59;2.17;;;1.58;;
20535;SDS011;10426;49.420;8.390;2023-04-03T12:42:34;1.50;;;1.40;;
20535;SDS011;10426;49.420;8.390;2023-04-03T12:45:11;1.40;;;1.30;;
20535;SDS011;10426;49.420;8.390;2023-04-03T12:47:39;1.15;;;1.00;;
20535;SDS011;10426;49.420;8.390;2023-04-03T12:50:16;2.25;;;1.30;;
20535;SDS011;10426;49.420;8.390;2023-04-03T12:52:45;1.40;;;1.30;;
20535;SDS011;10426;49.420;8.390;2023-04-03T12:55:15;1.15;;;1.10;;
20535;SDS011;10426;49.420;8.390;2023-04-03T12:57:41;1.35;;;1.25;;
20535;SDS011;10426;49.420;8.390;2023-04-03T13:00:25;1.30;;;1.30;;
20535;SDS011;10426;49.420;8.390;2023-04-03T13:02:52;1.77;;;1.50;;
20535;SDS011;10426;49.420;8.390;2023-04-03T13:05:19;2.33;;;1.67;;
20535;SDS011;10426;49.420;8.390;2023-04-03T13:07:48;1.48;;;1.38;;
20535;SDS011;10426;49.420;8.390;2023-04-03T13:10:16;2.00;;;1.60;;
20535;SDS011;10426;49.420;8.390;2023-04-03T13:12:47;1.70;;;1.45;;
20535;SDS011;10426;49.420;8.390;2023-04-03T13:15:15;1.40;;;1.30;;
20535;SDS011;10426;49.420;8.390;2023-04-03T13:17:44;1.67;;;1.48;;
20535;SDS011;10426;49.420;8.390;2023-04-03T13:20:12;1.70;;;1.40;;
20535;SDS011;10426;49.420;8.390;2023-04-03T13:22:39;1.50;;;1.40;;
20535;SDS011;10426;49.420;8.390;2023-04-03T13:25:09;1.40;;;1.17;;
20535;SDS011;10426;49.420;8.390;2023-04-03T13:27:37;1.40;;;1.30;;
20535;SDS011;10426;49.420;8.390;2023-04-03T13:30:05;2.80;;;1.42;;
20535;SDS011;10426;49.420;8.390;2023-04-03T13:32:32;1.50;;;1.40;;
20535;SDS011;10426;49.420;8.390;2023-04-03T13:35:00;1.50;;;1.40;;
20535;SDS011;10426;49.420;8.390;2023-04-03T13:37:30;2.20;;;1.90;;
20535;SDS011;10426;49.420;8.390;2023-04-03T13:39:58;2.65;;;2.45;;
20535;SDS011;10426;49.420;8.390;2023-04-03T13:42:26;1.40;;;1.30;;
20535;SDS011;10426;49.420;8.390;2023-04-03T13:47:40;2.35;;;1.50;;
20535;SDS011;10426;49.420;8.390;2023-04-03T13:50:15;1.35;;;1.33;;
20535;SDS011;10426;49.420;8.390;2023-04-03T13:52:43;3.23;;;1.40;;
20535;SDS011;10426;49.420;8.390;2023-04-03T13:55:17;2.33;;;1.87;;
20535;SDS011;10426;49.420;8.390;2023-04-03T13:57:51;5.20;;;3.95;;
20535;SDS011;10426;49.420;8.390;2023-04-03T14:00:19;6.78;;;3.75;;
20535;SDS011;10426;49.420;8.390;2023-04-03T14:02:47;3.23;;;3.03;;
20535;SDS011;10426;49.420;8.390;2023-04-03T14:05:15;1.88;;;1.67;;
20535;SDS011;10426;49.420;8.390;2023-04-03T14:07:43;8.82;;;6.47;;
20535;SDS011;10426;49.420;8.390;2023-04-03T14:10:10;11.00;;;6.68;;
20535;SDS011;10426;49.420;8.390;2023-04-03T14:12:37;2.13;;;1.90;;
20535;SDS011;10426;49.420;8.390;2023-04-03T14:15:10;4.28;;;3.90;;
20535;SDS011;10426;49.420;8.390;2023-04-03T14:17:38;10.25;;;5.82;;
20535;SDS011;10426;49.420;8.390;2023-04-03T14:20:06;14.87;;;7.33;;
20535;SDS011;10426;49.420;8.390;2023-04-03T14:22:34;13.00;;;6.10;;
20535;SDS011;10426;49.420;8.390;2023-04-03T14:25:01;16.33;;;8.15;;
20535;SDS011;10426;49.420;8.390;2023-04-03T14:27:28;4.53;;;2.95;;
20535;SDS011;10426;49.420;8.390;2023-04-03T14:29:56;3.75;;;2.67;;
20535;SDS011;10426;49.420;8.390;2023-04-03T14:32:23;2.00;;;1.77;;
20535;SDS011;10426;49.420;8.390;2023-04-03T14:34:51;8.55;;;4.40;;
20535;SDS011;10426;49.420;8.390;2023-04-03T14:37:19;11.52;;;5.97;;
20535;SDS011;10426;49.420;8.390;2023-04-03T14:39:48;1.60;;;1.50;;
20535;SDS011;10426;49.420;8.390;2023-04-03T14:42:16;2.80;;;2.60;;
20535;SDS011;10426;49.420;8.390;2023-04-03T14:44:43;1.83;;;1.67;;
20535;SDS011;10426;49.420;8.390;2023-04-03T14:47:10;4.45;;;3.20;;
20535;SDS011;10426;49.420;8.390;2023-04-03T14:49:38;1.90;;;1.60;;
20535;SDS011;10426;49.420;8.390;2023-04-03T14:52:05;8.30;;;5.68;;
20535;SDS011;10426;49.420;8.390;2023-04-03T14:54:31;8.02;;;6.13;;
20535;SDS011;10426;49.420;8.390;2023-04-03T14:56:59;9.32;;;5.03;;
20535;SDS011;10426;49.420;8.390;2023-04-03T14:59:27;4.07;;;2.55;;
20535;SDS011;10426;49.420;8.390;2023-04-03T15:01:54;7.95;;;5.80;;
20535;SDS011;10426;49.420;8.390;2023-04-03T15:04:21;3.90;;;3.40;;
20535;SDS011;10426;49.420;8.390;2023-04-03T15:06:47;5.60;;;4.43;;
20535;SDS011;10426;49.420;8.390;2023-04-03T15:09:17;3.47;;;3.17;;
20535;SDS011;10426;49.420;8.390;2023-04-03T15:11:45;3.30;;;2.03;;
20535;SDS011;10426;49.420;8.390;2023-04-03T15:14:13;3.20;;;3.00;;
20535;SDS011;10426;49.420;8.390;2023-04-03T15:16:40;2.00;;;1.90;;
20535;SDS011;10426;49.420;8.390;2023-04-03T15:19:07;2.22;;;1.80;;
20535;SDS011;10426;49.420;8.390;2023-04-03T15:21:33;1.85;;;1.73;;